Terminal Aerodrome Forecast
Issued by NWS

Home | Current Version | Previous Version | Text Only | Print | Product List | Glossary Off
Versions: 1 2 3 4 5 6 7 8 9 10 11 12 13 14 15 16 17

000
FTUS43 KGRB 010100 AAA
TAFCWA
TAF AMD
KCWA 010121Z 0101/0124 12005KT P6SM BKN010
     FM010800 13004KT P6SM SCT006 OVC010
      TEMPO 0109/0113 5SM BR BKN006
     FM011500 15008KT P6SM BKN018 PROB30 0121/0124 -SHRA
      AMD LTD TO CLD VIS AND WIND 0103/0111=

USA.gov is the U.S. government's official web portal to all federal, state and local government web resources and services.